Time;durP1;ratioP1;P1;durP2;ratioP2;P2;SDS_P1;SDS_P2;PMS_P1;PMS_P2;Temp;Humidity;BMP_temperature;BMP_pressure;BME280_temperature;BME280_humidity;BME280_pressure;Samples;Min_cycle;Max_cycle;Signal;HPM_P1;HPM_P2
2023/05/07 00:00:02;;;;;;;2.67;2.47;;;;;;;6.40;79.03;100951.66;5059160;28;20205;-60
2023/05/07 00:02:30;;;;;;;3.53;3.00;;;;;;;6.38;78.79;100943.97;5063782;28;20267;-59
2023/05/07 00:04:58;;;;;;;5.43;2.87;;;;;;;6.37;78.53;100943.94;5063912;28;20759;-60
2023/05/07 00:07:27;;;;;;;5.73;2.80;;;;;;;6.33;78.66;100943.00;5067376;28;20577;-61
2023/05/07 00:09:55;;;;;;;4.20;3.10;;;;;;;6.32;78.94;100942.97;5057918;28;20889;-60
2023/05/07 00:12:23;;;;;;;3.57;2.70;;;;;;;6.33;79.04;100942.13;5060197;28;20237;-61
2023/05/07 00:14:51;;;;;;;4.47;2.87;;;;;;;6.30;79.29;100937.84;5067819;28;20947;-60
2023/05/07 00:17:19;;;;;;;4.67;2.77;;;;;;;6.29;79.10;100946.34;5071426;28;20205;-61
2023/05/07 00:19:47;;;;;;;3.57;2.60;;;;;;;6.26;78.80;100951.41;5063205;28;20556;-60
2023/05/07 00:22:15;;;;;;;3.10;2.70;;;;;;;6.24;78.78;100943.69;5059933;28;20255;-60
2023/05/07 00:24:44;;;;;;;3.63;3.30;;;;;;;6.23;79.08;100951.34;5066756;28;20300;-60
2023/05/07 00:27:12;;;;;;;5.57;3.37;;;;;;;6.23;79.50;100956.47;5070815;28;20258;-60
2023/05/07 00:29:40;;;;;;;3.40;3.10;;;;;;;6.23;79.36;100962.44;5066541;28;20197;-59
2023/05/07 00:32:09;;;;;;;3.80;2.97;;;;;;;6.23;79.54;100961.59;5060139;28;20198;-60
2023/05/07 00:34:37;;;;;;;3.37;2.93;;;;;;;6.22;79.38;100958.16;5059980;28;20202;-60
2023/05/07 00:37:04;;;;;;;3.83;3.17;;;;;;;6.21;79.41;100963.22;5061801;28;20239;-61
2023/05/07 00:39:33;;;;;;;5.40;2.90;;;;;;;6.18;79.50;100958.91;5061573;28;20354;-60
2023/05/07 00:42:03;;;;;;;4.20;3.30;;;;;;;6.20;79.79;100967.50;5060987;28;20262;-60
2023/05/07 00:44:31;;;;;;;5.00;3.57;;;;;;;6.18;79.72;100964.03;5059836;28;20212;-60
2023/05/07 00:46:59;;;;;;;5.27;3.13;;;;;;;6.16;79.59;100975.94;5064727;28;20252;-62
2023/05/07 00:49:35;;;;;;;4.33;3.00;;;;;;;6.15;79.88;100975.88;5057785;28;20259;-61
2023/05/07 00:52:03;;;;;;;3.23;2.73;;;;;;;6.15;79.80;100973.31;5057102;28;20236;-60
2023/05/07 00:54:31;;;;;;;5.07;3.07;;;;;;;6.16;79.77;100981.06;5064451;28;20285;-60
2023/05/07 00:57:00;;;;;;;3.77;2.50;;;;;;;6.16;80.08;100983.63;5066540;28;20236;-60
2023/05/07 00:59:29;;;;;;;3.33;3.00;;;;;;;6.18;79.75;100989.63;5064156;28;20209;-59
2023/05/07 01:01:57;;;;;;;4.73;3.10;;;;;;;6.16;79.70;100988.72;5064910;28;20535;-60
2023/05/07 01:04:25;;;;;;;3.27;2.70;;;;;;;6.15;79.69;100988.69;5070059;28;20205;-61
2023/05/07 01:06:56;;;;;;;5.90;2.80;;;;;;;6.14;79.62;100986.97;5066972;28;20225;-59
2023/05/07 01:09:26;;;;;;;2.93;2.53;;;;;;;6.12;79.66;100980.97;5058237;28;20208;-61
2023/05/07 01:11:57;;;;;;;4.67;2.67;;;;;;;6.09;79.98;100981.75;5067262;28;20294;-60
2023/05/07 01:14:25;;;;;;;2.87;2.60;;;;;;;6.06;80.30;100974.00;5067249;28;20592;-60
2023/05/07 01:16:55;;;;;;;4.50;2.40;;;;;;;6.07;80.69;100982.53;5068090;28;20217;-60
2023/05/07 01:19:23;;;;;;;5.70;2.40;;;;;;;6.03;80.19;100982.47;5065590;28;20258;-60
2023/05/07 01:21:52;;;;;;;2.90;2.63;;;;;;;6.01;80.38;100984.16;5059029;28;20209;-60
2023/05/07 01:24:22;;;;;;;3.07;2.57;;;;;;;6.00;80.72;100984.09;5064617;28;20552;-60
2023/05/07 01:26:49;;;;;;;2.77;2.37;;;;;;;5.98;80.52;100986.63;5074528;28;20282;-60
2023/05/07 01:29:17;;;;;;;4.03;2.60;;;;;;;5.97;80.54;100989.16;5058778;28;20202;-60
2023/05/07 01:31:45;;;;;;;2.63;2.27;;;;;;;5.97;80.41;100989.16;5064165;28;20223;-60
2023/05/07 01:34:15;;;;;;;2.30;2.10;;;;;;;5.95;80.60;100991.69;5065560;28;20205;-60
2023/05/07 01:36:44;;;;;;;3.10;2.20;;;;;;;5.95;80.54;100995.94;5067832;28;20652;-62
2023/05/07 01:39:13;;;;;;;3.53;2.63;;;;;;;5.95;80.25;100998.50;5066381;28;20202;-60
2023/05/07 01:41:43;;;;;;;2.57;2.20;;;;;;;5.96;80.52;100997.66;5063058;28;20657;-60
2023/05/07 01:44:14;;;;;;;2.60;2.40;;;;;;;5.97;81.08;100996.84;5070142;28;20205;-61
2023/05/07 01:46:42;;;;;;;5.67;3.03;;;;;;;5.97;80.98;101001.97;5071462;28;20253;-63
2023/05/07 01:49:10;;;;;;;3.10;2.63;;;;;;;5.97;81.13;100994.28;5058238;28;20241;-61
2023/05/07 01:51:38;;;;;;;2.50;2.30;;;;;;;5.97;80.72;100989.16;5062483;28;20770;-62
2023/05/07 01:54:06;;;;;;;2.90;2.60;;;;;;;5.97;81.14;100994.28;5070704;28;20223;-61
2023/05/07 01:56:34;;;;;;;3.00;2.10;;;;;;;5.95;80.83;100995.94;5068909;28;20242;-61
2023/05/07 01:59:03;;;;;;;2.50;2.23;;;;;;;5.92;80.74;100996.72;5064705;28;20340;-61
2023/05/07 02:01:31;;;;;;;3.93;2.50;;;;;;;5.89;81.03;100990.63;5062465;28;20272;-61
2023/05/07 02:03:59;;;;;;;2.97;2.00;;;;;;;5.89;81.19;100991.53;5065143;28;20288;-62
2023/05/07 02:06:27;;;;;;;2.40;2.20;;;;;;;5.86;81.02;100991.44;5069178;28;20202;-60
2023/05/07 02:08:55;;;;;;;3.10;2.50;;;;;;;5.86;81.06;100981.22;5065147;28;20653;-60
2023/05/07 02:11:23;;;;;;;3.60;2.73;;;;;;;5.87;81.57;100992.31;5060765;28;20282;-60
2023/05/07 02:13:50;;;;;;;5.63;2.70;;;;;;;5.86;81.42;100988.03;5071073;28;20246;-59
2023/05/07 02:16:21;;;;;;;4.67;2.07;;;;;;;5.82;80.79;100984.53;5069688;28;20204;-61
2023/05/07 02:18:49;;;;;;;2.40;2.20;;;;;;;5.78;80.64;100987.84;5064296;28;20583;-62
2023/05/07 02:21:17;;;;;;;4.67;2.40;;;;;;;5.76;81.12;100992.06;5057692;28;20221;-60
2023/05/07 02:23:45;;;;;;;2.50;2.27;;;;;;;5.76;80.89;100994.63;5061591;28;20228;-61
2023/05/07 02:26:13;;;;;;;5.87;2.43;;;;;;;5.74;81.17;100994.59;5062428;28;20211;-61
2023/05/07 02:28:41;;;;;;;4.23;2.50;;;;;;;5.69;81.49;100988.50;5072986;28;20339;-60
2023/05/07 02:31:08;;;;;;;4.17;2.27;;;;;;;5.69;81.11;100991.03;5066133;28;20737;-60
2023/05/07 02:33:38;;;;;;;5.57;2.10;;;;;;;5.72;81.63;100992.81;5071033;28;20209;-61
2023/05/07 02:36:09;;;;;;;3.17;2.10;;;;;;;5.70;81.03;100995.31;5073438;28;20205;-60
2023/05/07 02:38:37;;;;;;;2.43;2.23;;;;;;;5.69;81.47;100993.59;5072980;28;20285;-60
2023/05/07 02:41:05;;;;;;;3.03;2.40;;;;;;;5.67;81.56;100989.28;5070421;28;20201;-60
2023/05/07 02:43:33;;;;;;;2.03;1.80;;;;;;;5.66;81.63;100997.78;5062698;28;20656;-61
2023/05/07 02:46:02;;;;;;;2.40;2.10;;;;;;;5.63;81.93;100996.00;5073009;28;20228;-60
2023/05/07 02:48:30;;;;;;;4.43;2.53;;;;;;;5.63;81.33;100990.91;5072647;28;20209;-61
2023/05/07 02:51:00;;;;;;;4.37;2.43;;;;;;;5.61;81.53;101000.22;5066377;28;20604;-59
2023/05/07 02:53:29;;;;;;;3.00;2.20;;;;;;;5.61;81.78;101002.78;5066620;28;20202;-59
2023/05/07 02:55:58;;;;;;;3.07;2.10;;;;;;;5.59;81.56;100999.31;5063080;28;20205;-61
2023/05/07 02:58:27;;;;;;;2.77;2.30;;;;;;;5.59;82.16;101007.00;5056900;28;20719;-61
2023/05/07 03:00:55;;;;;;;2.27;2.07;;;;;;;5.61;81.75;101007.91;5058797;28;20212;-59
2023/05/07 03:03:23;;;;;;;3.13;2.40;;;;;;;5.61;81.83;101010.47;5066548;28;20285;-59
2023/05/07 03:05:51;;;;;;;4.23;2.70;;;;;;;5.62;81.69;101011.31;5065943;28;20232;-59
2023/05/07 03:08:20;;;;;;;2.90;2.20;;;;;;;5.62;81.52;101012.19;5067977;28;20694;-59
2023/05/07 03:10:48;;;;;;;2.63;2.43;;;;;;;5.61;81.84;101000.22;5055668;28;21091;-60
2023/05/07 03:13:16;;;;;;;2.83;2.43;;;;;;;5.65;81.94;101007.16;5064860;28;20233;-59
2023/05/07 03:15:44;;;;;;;3.43;2.00;;;;;;;5.66;81.96;101006.31;5060445;28;20715;-59
2023/05/07 03:18:12;;;;;;;2.73;1.97;;;;;;;5.66;81.82;101013.13;5064388;28;20682;-59
2023/05/07 03:20:40;;;;;;;2.77;2.20;;;;;;;5.68;81.88;101017.44;5052405;28;20629;-59
2023/05/07 03:23:08;;;;;;;2.67;2.13;;;;;;;5.69;81.76;101024.28;5057246;28;20256;-59
2023/05/07 03:25:37;;;;;;;2.97;1.87;;;;;;;5.67;81.51;101020.84;5057190;28;20664;-59
2023/05/07 03:28:05;;;;;;;2.70;2.33;;;;;;;5.71;81.74;101035.44;5060528;28;20271;-58
2023/05/07 03:30:33;;;;;;;2.10;1.90;;;;;;;5.68;81.93;101035.34;5062554;28;20206;-58
2023/05/07 03:33:01;;;;;;;3.33;2.20;;;;;;;5.69;81.61;101031.97;5055764;28;20289;-59
2023/05/07 03:35:29;;;;;;;4.90;2.53;;;;;;;5.69;81.80;101037.06;5071051;28;20205;-59
2023/05/07 03:37:56;;;;;;;7.33;2.40;;;;;;;5.73;81.96;101030.34;5058288;28;20255;-59
2023/05/07 03:40:24;;;;;;;2.30;2.00;;;;;;;5.71;81.95;101050.78;5068648;28;20618;-59
2023/05/07 03:42:54;;;;;;;2.73;2.13;;;;;;;5.72;81.88;101042.25;5067721;28;20201;-59
2023/05/07 03:45:21;;;;;;;3.23;2.10;;;;;;;5.73;81.65;101046.53;5060067;28;20627;-58
2023/05/07 03:47:49;;;;;;;3.20;2.07;;;;;;;5.74;81.78;101057.63;5065281;28;20596;-60
2023/05/07 03:50:17;;;;;;;3.80;2.10;;;;;;;5.74;81.89;101060.19;5066091;28;20206;-58
2023/05/07 03:52:45;;;;;;;3.07;2.00;;;;;;;5.73;82.00;101051.66;5061995;28;20202;-59
2023/05/07 03:55:13;;;;;;;2.90;2.47;;;;;;;5.75;82.07;101062.81;5056789;28;20233;-59
2023/05/07 03:57:41;;;;;;;3.13;2.30;;;;;;;5.77;81.94;101057.72;5054832;28;20210;-60
2023/05/07 04:00:12;;;;;;;2.57;2.00;;;;;;;5.76;81.85;101056.84;5053576;28;20201;-58
2023/05/07 04:02:40;;;;;;;3.93;2.13;;;;;;;5.78;81.80;101052.66;5068161;28;20201;-59
2023/05/07 04:05:09;;;;;;;2.30;2.00;;;;;;;5.79;81.27;101058.63;5066662;28;20197;-59
2023/05/07 04:07:37;;;;;;;2.53;1.90;;;;;;;5.80;80.99;101060.34;5071137;28;20239;-59
2023/05/07 04:10:05;;;;;;;2.17;1.83;;;;;;;5.77;80.93;101066.25;5063902;28;20197;-59
2023/05/07 04:12:33;;;;;;;2.33;2.13;;;;;;;5.80;81.18;101068.88;5057298;28;20237;-59
2023/05/07 04:15:01;;;;;;;2.53;1.70;;;;;;;5.80;80.82;101074.00;5071679;28;20243;-59
2023/05/07 04:17:30;;;;;;;2.30;1.93;;;;;;;5.80;81.33;101083.38;5069159;28;20206;-59
2023/05/07 04:19:58;;;;;;;2.40;2.20;;;;;;;5.82;81.47;101086.84;5061257;28;20198;-58
2023/05/07 04:22:26;;;;;;;3.27;2.07;;;;;;;5.81;81.16;101083.38;5058902;28;20539;-58
2023/05/07 04:24:54;;;;;;;2.33;2.10;;;;;;;5.83;81.71;101086.00;5067361;28;20621;-59
2023/05/07 04:27:22;;;;;;;2.60;2.40;;;;;;;5.81;81.56;101080.84;5051872;28;20202;-57
2023/05/07 04:29:50;;;;;;;3.50;2.10;;;;;;;5.84;81.62;101090.28;5059771;28;20679;-58
2023/05/07 04:32:18;;;;;;;3.63;2.50;;;;;;;5.84;81.20;101095.41;5071068;28;20212;-59
2023/05/07 04:34:47;;;;;;;3.63;2.00;;;;;;;5.85;81.35;101094.56;5067822;28;20205;-59
2023/05/07 04:37:15;;;;;;;3.63;2.40;;;;;;;5.84;81.33;101100.50;5062934;28;20197;-59
2023/05/07 04:39:43;;;;;;;2.97;2.37;;;;;;;5.85;81.00;101098.81;5070178;28;20224;-59
2023/05/07 04:42:15;;;;;;;2.00;1.77;;;;;;;5.85;81.20;101106.50;5068337;28;20267;-59
2023/05/07 04:44:44;;;;;;;2.67;2.10;;;;;;;5.84;80.92;101097.09;5061079;28;20952;-59
2023/05/07 04:47:12;;;;;;;3.67;2.03;;;;;;;5.84;81.32;101102.22;5065799;28;20532;-59
2023/05/07 04:49:40;;;;;;;2.87;2.20;;;;;;;5.84;81.38;101102.22;5063228;28;20248;-58
2023/05/07 04:52:09;;;;;;;2.77;2.17;;;;;;;5.85;81.82;101109.03;5058819;28;20228;-62
2023/05/07 04:54:37;;;;;;;3.13;2.00;;;;;;;5.88;81.28;101112.53;5068289;28;20284;-57
2023/05/07 04:57:05;;;;;;;3.20;2.30;;;;;;;5.87;80.91;101118.50;5070436;28;20201;-59
2023/05/07 04:59:33;;;;;;;4.37;2.10;;;;;;;5.89;81.10;101121.97;5069809;28;20209;-60
2023/05/07 05:02:03;;;;;;;2.13;1.93;;;;;;;5.91;81.13;101111.75;5058339;28;20623;-59
2023/05/07 05:04:31;;;;;;;3.10;2.23;;;;;;;5.94;81.26;101122.09;5058953;28;20695;-59
2023/05/07 05:06:59;;;;;;;2.37;2.00;;;;;;;5.98;81.39;101126.47;5064185;28;20255;-61
2023/05/07 05:09:28;;;;;;;3.10;2.20;;;;;;;6.02;81.04;101124.00;5059793;28;20255;-61
2023/05/07 05:11:56;;;;;;;2.00;1.80;;;;;;;6.08;80.90;101133.53;5059275;28;20777;-59
2023/05/07 05:14:24;;;;;;;2.50;2.30;;;;;;;6.11;80.52;101130.19;5063515;28;20260;-59
2023/05/07 05:16:52;;;;;;;3.40;2.40;;;;;;;6.15;80.79;101120.06;5055542;28;20544;-59
2023/05/07 05:19:20;;;;;;;3.20;2.10;;;;;;;6.21;80.43;101121.91;5052883;28;20233;-59
2023/05/07 05:21:48;;;;;;;3.23;2.43;;;;;;;6.24;80.17;101124.53;5058640;28;20223;-60
2023/05/07 05:24:16;;;;;;;2.77;2.40;;;;;;;6.32;79.61;101130.69;5061242;28;20212;-58
2023/05/07 05:26:45;;;;;;;2.30;2.10;;;;;;;6.43;79.72;101133.50;5068439;28;20202;-60
2023/05/07 05:29:13;;;;;;;2.17;1.97;;;;;;;6.47;79.09;101132.72;5067848;28;20644;-61
2023/05/07 05:31:41;;;;;;;3.80;2.13;;;;;;;6.56;78.97;101135.50;5061774;28;20624;-59
2023/05/07 05:34:09;;;;;;;2.27;2.07;;;;;;;6.63;78.82;101136.50;5060097;28;20248;-64
2023/05/07 05:36:37;;;;;;;2.20;1.83;;;;;;;6.67;78.50;101135.75;5054688;28;20283;-58
2023/05/07 05:39:05;;;;;;;2.40;2.10;;;;;;;6.69;78.15;101127.25;5052848;28;20205;-57
2023/05/07 05:41:33;;;;;;;2.20;1.90;;;;;;;6.70;78.22;101139.25;5061682;28;20706;-59
2023/05/07 05:44:02;;;;;;;2.57;2.23;;;;;;;6.68;77.69;101140.91;5057540;28;20206;-59
2023/05/07 05:46:30;;;;;;;2.13;1.80;;;;;;;6.66;77.66;101139.97;5055655;28;20241;-60
2023/05/07 05:49:00;;;;;;;2.60;2.17;;;;;;;6.66;78.19;101145.09;5053924;28;20935;-59
2023/05/07 05:51:28;;;;;;;1.80;1.70;;;;;;;6.67;78.17;101146.84;5049671;28;20214;-58
2023/05/07 05:53:55;;;;;;;3.40;1.97;;;;;;;6.69;78.21;101149.44;5056911;28;20619;-59
2023/05/07 05:56:23;;;;;;;2.40;1.93;;;;;;;6.72;77.73;101145.25;5058769;28;20198;-58
2023/05/07 05:58:51;;;;;;;2.27;1.87;;;;;;;6.79;77.75;101153.94;5064736;28;20659;-58
2023/05/07 06:01:20;;;;;;;3.03;1.70;;;;;;;6.83;77.32;101160.00;5063021;28;20202;-59
2023/05/07 06:03:48;;;;;;;4.17;1.73;;;;;;;6.90;76.79;101162.72;5067652;28;20269;-61
2023/05/07 06:06:16;;;;;;;2.10;1.70;;;;;;;6.88;75.92;101169.50;5069663;28;20262;-61
2023/05/07 06:08:44;;;;;;;1.63;1.53;;;;;;;6.85;75.96;101169.44;5060331;28;20209;-60
2023/05/07 06:11:12;;;;;;;2.90;1.80;;;;;;;6.85;76.55;101160.88;5065532;28;20205;-61
2023/05/07 06:13:39;;;;;;;2.73;1.60;;;;;;;6.87;76.65;101166.91;5061994;28;20210;-60
2023/05/07 06:16:08;;;;;;;2.07;1.50;;;;;;;6.89;76.71;101165.25;5058892;28;20228;-60
2023/05/07 06:18:37;;;;;;;2.07;1.97;;;;;;;6.87;76.17;101166.91;5063832;28;20289;-67
2023/05/07 06:21:05;;;;;;;1.80;1.67;;;;;;;6.86;75.76;101168.59;5054249;28;20229;-59
2023/05/07 06:23:33;;;;;;;2.23;1.70;;;;;;;6.93;75.71;101172.19;5058579;28;20262;-61
2023/05/07 06:26:01;;;;;;;2.43;1.77;;;;;;;6.96;75.89;101174.81;5059459;28;20236;-61
2023/05/07 06:28:30;;;;;;;2.10;1.90;;;;;;;6.98;75.93;101180.81;5062944;28;20205;-60
2023/05/07 06:31:12;;;;;;;1.83;1.70;;;;;;;7.00;75.58;101184.28;5062883;28;20225;-58
2023/05/07 06:33:41;;;;;;;2.40;2.20;;;;;;;7.01;75.19;101188.56;5055476;28;20610;-59
2023/05/07 06:36:09;;;;;;;4.13;1.93;;;;;;;7.01;76.17;101196.25;5057754;28;20206;-59
2023/05/07 06:38:37;;;;;;;1.70;1.60;;;;;;;6.99;75.67;101182.53;5067368;28;20256;-59
2023/05/07 06:41:06;;;;;;;4.40;1.73;;;;;;;6.99;75.29;101185.09;5057513;28;20944;-60
2023/05/07 06:43:34;;;;;;;1.60;1.50;;;;;;;7.06;75.71;101184.41;5059850;28;20197;-59
2023/05/07 06:46:02;;;;;;;3.93;1.57;;;;;;;7.08;74.79;101176.75;5058991;28;20233;-60
2023/05/07 06:48:30;;;;;;;1.87;1.77;;;;;;;7.06;74.34;101184.41;5065158;28;20224;-60
2023/05/07 06:50:59;;;;;;;2.87;1.37;;;;;;;7.05;74.65;101190.38;5056914;28;20297;-59
2023/05/07 06:53:28;;;;;;;2.00;1.43;;;;;;;7.08;74.71;101193.00;5056926;28;20205;-59
2023/05/07 06:55:56;;;;;;;3.33;2.00;;;;;;;7.13;75.08;101191.38;5060334;28;20660;-60
2023/05/07 06:58:24;;;;;;;2.67;1.73;;;;;;;7.18;75.36;101188.91;5059466;28;20314;-61
2023/05/07 07:00:51;;;;;;;2.97;1.77;;;;;;;7.24;74.46;101195.03;5059460;28;20209;-59
2023/05/07 07:03:19;;;;;;;1.67;1.30;;;;;;;7.30;73.85;101193.44;5060648;28;20308;-59
2023/05/07 07:05:47;;;;;;;1.70;1.60;;;;;;;7.35;73.94;101192.69;5068032;28;20205;-60
2023/05/07 07:08:17;;;;;;;7.27;1.80;;;;;;;7.40;73.22;101195.31;5057355;28;20596;-58
2023/05/07 07:10:45;;;;;;;3.13;1.80;;;;;;;7.44;73.75;101202.28;5066155;28;20214;-57
2023/05/07 07:13:13;;;;;;;2.13;1.80;;;;;;;7.44;72.76;101199.72;5056739;28;20230;-60
2023/05/07 07:15:41;;;;;;;3.83;1.90;;;;;;;7.44;73.01;101194.59;5061298;28;20296;-60
2023/05/07 07:18:09;;;;;;;2.47;1.90;;;;;;;7.46;72.61;101206.59;5054125;28;20208;-60
2023/05/07 07:20:37;;;;;;;2.27;1.73;;;;;;;7.51;72.81;101211.78;5050644;28;20202;-59
2023/05/07 07:23:05;;;;;;;2.77;1.77;;;;;;;7.53;73.13;101199.03;5063073;28;20202;-58
2023/05/07 07:25:34;;;;;;;1.97;1.67;;;;;;;7.60;71.88;101214.56;5059776;28;20255;-59
2023/05/07 07:28:02;;;;;;;1.77;1.63;;;;;;;7.73;71.66;101218.19;5055539;28;20602;-60
2023/05/07 07:30:30;;;;;;;3.40;2.03;;;;;;;7.88;70.84;101208.25;5061763;28;20262;-62
2023/05/07 07:33:02;;;;;;;2.53;1.70;;;;;;;7.99;70.80;101211.88;5062306;28;20202;-61
2023/05/07 07:35:30;;;;;;;1.77;1.40;;;;;;;7.98;70.33;101214.38;5052054;28;20677;-60
2023/05/07 07:37:58;;;;;;;1.70;1.60;;;;;;;7.97;70.33;101225.50;5056104;28;20210;-60
2023/05/07 07:40:26;;;;;;;2.93;1.60;;;;;;;7.98;69.69;101224.66;5064896;28;20197;-59
2023/05/07 07:42:55;;;;;;;2.83;1.50;;;;;;;8.07;70.48;101222.28;5064409;28;20233;-58
2023/05/07 07:45:23;;;;;;;1.30;1.20;;;;;;;8.18;69.14;101227.59;5055286;28;20201;-59
2023/05/07 07:47:51;;;;;;;2.30;2.07;;;;;;;8.26;68.66;101227.72;5057670;28;20209;-58
2023/05/07 07:50:19;;;;;;;2.43;1.57;;;;;;;8.31;69.07;101226.06;5054662;28;20256;-58
2023/05/07 07:53:07;;;;;;;2.23;1.53;;;;;;;8.27;68.61;101230.28;5059250;28;20206;-59
2023/05/07 07:55:39;;;;;;;2.70;1.70;;;;;;;8.29;69.35;101225.22;5061392;28;20209;-60
2023/05/07 07:58:08;;;;;;;4.97;1.60;;;;;;;8.33;68.51;101219.28;5048987;28;20201;-60
2023/05/07 08:00:36;;;;;;;2.90;2.00;;;;;;;8.35;68.36;101218.44;5057805;28;20201;-61
2023/05/07 08:03:06;;;;;;;2.27;1.83;;;;;;;8.39;67.79;101229.66;5063008;28;20566;-59
2023/05/07 08:05:35;;;;;;;2.37;1.53;;;;;;;8.39;68.00;101234.81;5063416;28;20213;-60
2023/05/07 08:08:03;;;;;;;1.90;1.70;;;;;;;8.38;68.79;101231.38;5069668;28;20663;-60
2023/05/07 08:10:34;;;;;;;1.67;1.57;;;;;;;8.42;68.07;101233.16;5050736;28;20245;-61
2023/05/07 08:13:03;;;;;;;1.87;1.77;;;;;;;8.44;67.57;101233.19;5055004;28;20322;-60
2023/05/07 08:15:33;;;;;;;1.60;1.50;;;;;;;8.53;67.89;101235.88;5065822;28;20233;-58
2023/05/07 08:18:03;;;;;;;1.90;1.70;;;;;;;8.58;67.15;101236.84;5063374;28;20206;-61
2023/05/07 08:20:31;;;;;;;2.10;1.63;;;;;;;8.54;67.11;101247.88;5058064;28;20566;-62
2023/05/07 08:22:59;;;;;;;1.73;1.47;;;;;;;8.49;67.09;101246.97;5065940;28;20218;-62
2023/05/07 08:25:27;;;;;;;2.20;1.63;;;;;;;8.55;67.35;101257.34;5048790;28;20668;-61
2023/05/07 08:27:55;;;;;;;2.83;1.60;;;;;;;8.91;65.24;101245.88;5057466;28;20209;-60
2023/05/07 08:30:22;;;;;;;2.90;1.60;;;;;;;9.31;63.85;101238.72;5046501;28;20566;-62
2023/05/07 08:32:52;;;;;;;2.30;1.90;;;;;;;9.47;63.42;101245.78;5054535;28;20260;-60
2023/05/07 08:35:20;;;;;;;3.87;1.50;;;;;;;9.56;62.57;101243.31;5060568;28;20201;-60
2023/05/07 08:37:48;;;;;;;1.50;1.40;;;;;;;9.86;61.97;101249.66;5067992;28;20216;-61
2023/05/07 08:40:16;;;;;;;1.90;1.60;;;;;;;10.18;61.00;101243.97;5052559;28;20241;-62
2023/05/07 08:42:45;;;;;;;2.10;1.40;;;;;;;10.26;59.05;101248.38;5051362;28;20289;-61
2023/05/07 08:45:13;;;;;;;1.90;1.37;;;;;;;10.11;58.62;101243.91;5053115;28;20206;-61
2023/05/07 08:47:45;;;;;;;3.17;1.67;;;;;;;10.03;59.47;101249.84;5067629;28;20254;-59
2023/05/07 08:50:14;;;;;;;3.07;1.60;;;;;;;9.89;59.80;101255.69;5067963;28;20216;-61
2023/05/07 08:52:42;;;;;;;1.50;1.40;;;;;;;9.74;60.01;101252.09;5054724;28;20536;-60
2023/05/07 08:55:11;;;;;;;1.50;1.40;;;;;;;9.68;61.72;101261.50;5060974;28;20233;-60
2023/05/07 08:57:39;;;;;;;1.77;1.30;;;;;;;9.93;61.61;101260.03;5064292;28;20213;-61
2023/05/07 09:00:09;;;;;;;1.17;1.00;;;;;;;10.21;60.13;101262.91;5051716;28;20259;-59
2023/05/07 09:02:37;;;;;;;3.03;1.83;;;;;;;10.28;58.08;101258.72;5055151;28;20197;-64
2023/05/07 09:05:06;;;;;;;2.23;1.70;;;;;;;10.43;58.08;101260.56;5055246;28;20206;-60
2023/05/07 09:07:35;;;;;;;1.43;1.33;;;;;;;10.60;57.11;101264.09;5061170;28;20631;-60
2023/05/07 09:10:04;;;;;;;1.97;1.57;;;;;;;10.39;56.56;101257.94;5049039;28;20202;-60
2023/05/07 09:12:32;;;;;;;2.10;1.20;;;;;;;10.28;57.53;101264.72;5059651;28;20696;-60
2023/05/07 09:15:00;;;;;;;2.53;1.33;;;;;;;10.24;56.26;101264.66;5049440;28;20202;-61
2023/05/07 09:17:29;;;;;;;2.93;1.20;;;;;;;10.07;56.81;101259.31;5055406;28;20676;-60
2023/05/07 09:19:57;;;;;;;1.43;1.30;;;;;;;9.94;57.60;101271.19;5051939;28;20217;-61
2023/05/07 09:22:25;;;;;;;1.27;1.17;;;;;;;9.75;57.96;101270.13;5059506;28;20233;-62
2023/05/07 09:24:54;;;;;;;1.40;1.30;;;;;;;9.65;58.53;101270.88;5053313;28;20201;-61
2023/05/07 09:27:22;;;;;;;2.50;1.23;;;;;;;9.57;58.67;101270.81;5050920;28;20205;-62
2023/05/07 09:29:51;;;;;;;3.23;1.50;;;;;;;9.55;58.62;101277.63;5054580;28;21157;-62
2023/05/07 09:32:19;;;;;;;1.83;1.30;;;;;;;9.62;58.83;101284.56;5059504;28;20270;-61
2023/05/07 09:34:47;;;;;;;1.73;1.60;;;;;;;10.16;56.50;101286.03;5055338;28;20213;-60
2023/05/07 09:37:16;;;;;;;1.40;1.30;;;;;;;10.77;53.90;101277.16;5054575;28;20287;-61
2023/05/07 09:39:46;;;;;;;2.40;1.17;;;;;;;10.87;52.58;101284.97;5058000;28;20198;-62
2023/05/07 09:42:16;;;;;;;1.77;1.30;;;;;;;10.72;53.25;101289.16;5056435;28;20600;-62
2023/05/07 09:44:45;;;;;;;1.63;1.40;;;;;;;10.52;53.85;101286.38;5068280;28;20288;-61
2023/05/07 09:47:19;;;;;;;5.63;1.50;;;;;;;10.36;54.36;101285.41;5056940;28;20592;-60
2023/05/07 09:49:48;;;;;;;1.93;1.60;;;;;;;10.39;54.05;101282.84;5064068;28;20212;-59
2023/05/07 09:52:17;;;;;;;5.67;1.50;;;;;;;10.68;53.33;101298.56;5066056;28;20249;-60
2023/05/07 09:54:48;;;;;;;2.30;1.43;;;;;;;11.05;51.43;101294.53;5056302;28;20197;-61
2023/05/07 09:57:20;;;;;;;3.73;1.50;;;;;;;11.26;50.22;101300.66;5059979;28;20201;-61
2023/05/07 09:59:49;;;;;;;2.93;1.40;;;;;;;11.70;49.45;101290.56;5064505;28;20205;-62
2023/05/07 10:02:20;;;;;;;0.97;0.97;;;;;;;11.87;47.16;101284.63;5056996;28;20216;-60
2023/05/07 10:04:49;;;;;;;2.13;1.23;;;;;;;12.02;47.89;101298.44;5065604;28;20263;-60
2023/05/07 10:07:17;;;;;;;2.43;1.17;;;;;;;12.02;47.37;101293.28;5057424;28;20591;-59
2023/05/07 10:09:46;;;;;;;1.77;1.30;;;;;;;11.69;47.57;101306.06;5055894;28;20211;-61
2023/05/07 10:12:18;;;;;;;1.93;1.70;;;;;;;11.27;48.35;101310.16;5055387;28;20236;-60
2023/05/07 10:14:48;;;;;;;2.60;1.20;;;;;;;11.05;49.27;101309.16;5056755;28;20202;-61
2023/05/07 10:17:17;;;;;;;1.70;1.33;;;;;;;11.04;49.36;101307.41;5054471;28;20198;-62
2023/05/07 10:19:45;;;;;;;1.27;1.20;;;;;;;11.16;49.28;101317.81;5073518;28;20208;-60
2023/05/07 10:22:16;;;;;;;1.33;1.23;;;;;;;11.23;49.05;101318.72;5073718;28;20722;-61
2023/05/07 10:24:45;;;;;;;1.20;1.00;;;;;;;11.43;48.34;101314.53;5073340;28;20209;-60
2023/05/07 10:27:16;;;;;;;1.77;1.23;;;;;;;11.79;48.48;101315.56;5073415;28;20201;-61
2023/05/07 10:29:54;;;;;;;2.07;0.87;;;;;;;11.82;46.70;101310.41;5073508;28;20643;-60
2023/05/07 10:32:34;;;;;;;3.43;1.27;;;;;;;11.50;47.45;101312.84;5058151;28;20688;-61
2023/05/07 10:35:05;;;;;;;1.77;1.07;;;;;;;11.37;47.56;101324.81;5069513;28;20205;-60
2023/05/07 10:37:34;;;;;;;1.43;1.33;;;;;;;11.04;48.07;101307.41;5069201;28;20255;-61
2023/05/07 10:40:02;;;;;;;1.97;1.03;;;;;;;10.69;49.41;101305.44;5069031;28;20209;-60
2023/05/07 10:42:30;;;;;;;1.70;1.40;;;;;;;10.43;49.18;101305.22;5071957;28;20247;-60
2023/05/07 10:45:13;;;;;;;1.53;1.13;;;;;;;10.27;50.66;101319.66;5072560;28;20628;-63
2023/05/07 10:48:08;;;;;;;3.67;1.63;;;;;;;10.12;50.79;101319.44;5063607;28;20206;-62
2023/05/07 10:51:21;;;;;;;1.40;1.10;;;;;;;10.00;52.77;101327.91;5060491;28;20206;-61
2023/05/07 10:53:49;;;;;;;1.23;1.13;;;;;;;9.98;53.41;101324.47;5072907;28;20201;-61
2023/05/07 10:56:30;;;;;;;3.23;1.50;;;;;;;9.95;52.81;101329.59;5073126;28;20247;-61
2023/05/07 10:59:33;;;;;;;1.40;1.30;;;;;;;9.93;53.59;101336.41;5073166;28;20735;-60
2023/05/07 11:02:05;;;;;;;1.30;1.10;;;;;;;9.89;53.14;101338.09;5062574;28;20563;-61
2023/05/07 11:04:34;;;;;;;0.97;0.87;;;;;;;9.90;52.90;101341.50;5070161;28;20283;-61
2023/05/07 11:07:30;;;;;;;1.13;1.00;;;;;;;10.00;52.60;101332.19;5072849;28;20624;-61
2023/05/07 11:10:05;;;;;;;1.70;1.60;;;;;;;10.09;52.41;101328.03;5067509;28;20205;-61
2023/05/07 11:12:51;;;;;;;1.13;1.07;;;;;;;10.28;52.82;101338.56;5072241;28;20258;-62
2023/05/07 11:15:37;;;;;;;1.67;1.20;;;;;;;10.34;50.94;101341.19;5072733;28;20209;-62
2023/05/07 11:18:06;;;;;;;2.83;1.10;;;;;;;10.35;51.20;101338.63;5059965;28;20725;-61
2023/05/07 11:20:48;;;;;;;1.43;0.93;;;;;;;10.57;50.66;101350.03;5064636;28;20202;-61
2023/05/07 11:24:08;;;;;;;2.53;0.97;;;;;;;10.97;49.82;101337.47;5066134;28;20550;-60
2023/05/07 11:26:47;;;;;;;2.90;0.90;;;;;;;10.88;49.53;101343.41;5069974;28;20240;-63
2023/05/07 11:29:17;;;;;;;1.53;1.20;;;;;;;10.68;50.05;101344.06;5061167;28;20224;-61
2023/05/07 11:31:52;;;;;;;1.67;1.30;;;;;;;10.59;50.20;101348.31;5069158;28;20560;-63
2023/05/07 11:34:26;;;;;;;2.47;1.30;;;;;;;10.60;50.66;101352.63;5054893;28;21018;-63
2023/05/07 11:36:54;;;;;;;1.67;1.27;;;;;;;10.72;50.99;101353.59;5065177;28;20209;-62
2023/05/07 11:39:29;;;;;;;2.87;1.50;;;;;;;10.85;50.87;101348.53;5072566;28;20201;-60
2023/05/07 11:41:58;;;;;;;1.70;1.50;;;;;;;11.13;51.15;101347.03;5072213;28;20659;-62